sensor_id;sensor_type;location;lat;lon;timestamp;P1;durP1;ratioP1;P2;durP2;ratioP2
6679;SDS011;3376;42.664;23.346;2023-02-18T00:00:11;25.33;;;15.27;;
6679;SDS011;3376;42.664;23.346;2023-02-18T00:02:42;23.47;;;14.40;;
6679;SDS011;3376;42.664;23.346;2023-02-18T00:05:09;27.07;;;15.30;;
6679;SDS011;3376;42.664;23.346;2023-02-18T00:07:37;18.77;;;13.83;;
6679;SDS011;3376;42.664;23.346;2023-02-18T00:10:05;19.60;;;13.90;;
6679;SDS011;3376;42.664;23.346;2023-02-18T00:12:34;27.13;;;13.90;;
6679;SDS011;3376;42.664;23.346;2023-02-18T00:15:00;26.60;;;15.27;;
6679;SDS011;3376;42.664;23.346;2023-02-18T00:17:28;18.83;;;11.73;;
6679;SDS011;3376;42.664;23.346;2023-02-18T00:19:57;18.90;;;12.83;;
6679;SDS011;3376;42.664;23.346;2023-02-18T00:22:24;13.47;;;11.97;;
6679;SDS011;3376;42.664;23.346;2023-02-18T00:24:51;18.60;;;13.47;;
6679;SDS011;3376;42.664;23.346;2023-02-18T00:27:18;21.20;;;13.37;;
6679;SDS011;3376;42.664;23.346;2023-02-18T00:29:44;17.37;;;12.00;;
6679;SDS011;3376;42.664;23.346;2023-02-18T00:32:11;21.37;;;14.03;;
6679;SDS011;3376;42.664;23.346;2023-02-18T00:34:38;14.93;;;10.83;;
6679;SDS011;3376;42.664;23.346;2023-02-18T00:37:06;19.93;;;14.17;;
6679;SDS011;3376;42.664;23.346;2023-02-18T00:39:33;13.37;;;11.90;;
6679;SDS011;3376;42.664;23.346;2023-02-18T00:41:59;18.90;;;13.77;;
6679;SDS011;3376;42.664;23.346;2023-02-18T00:44:26;20.33;;;12.70;;
6679;SDS011;3376;42.664;23.346;2023-02-18T00:46:53;15.77;;;12.57;;
6679;SDS011;3376;42.664;23.346;2023-02-18T00:49:19;16.57;;;13.00;;
6679;SDS011;3376;42.664;23.346;2023-02-18T00:51:46;21.53;;;11.23;;
6679;SDS011;3376;42.664;23.346;2023-02-18T00:54:14;25.47;;;13.83;;
6679;SDS011;3376;42.664;23.346;2023-02-18T00:56:41;23.70;;;15.83;;
6679;SDS011;3376;42.664;23.346;2023-02-18T00:59:08;22.20;;;15.43;;
6679;SDS011;3376;42.664;23.346;2023-02-18T01:01:35;21.23;;;14.03;;
6679;SDS011;3376;42.664;23.346;2023-02-18T01:04:01;26.87;;;15.13;;
6679;SDS011;3376;42.664;23.346;2023-02-18T01:06:28;22.67;;;14.97;;
6679;SDS011;3376;42.664;23.346;2023-02-18T01:08:55;30.00;;;16.10;;
6679;SDS011;3376;42.664;23.346;2023-02-18T01:11:23;24.33;;;14.73;;
6679;SDS011;3376;42.664;23.346;2023-02-18T01:13:50;22.07;;;14.07;;
6679;SDS011;3376;42.664;23.346;2023-02-18T01:16:17;21.30;;;15.37;;
6679;SDS011;3376;42.664;23.346;2023-02-18T01:18:44;19.43;;;13.53;;
6679;SDS011;3376;42.664;23.346;2023-02-18T01:21:11;18.53;;;15.33;;
6679;SDS011;3376;42.664;23.346;2023-02-18T01:23:38;22.73;;;14.97;;
6679;SDS011;3376;42.664;23.346;2023-02-18T01:26:06;22.27;;;14.23;;
6679;SDS011;3376;42.664;23.346;2023-02-18T01:28:35;17.70;;;14.97;;
6679;SDS011;3376;42.664;23.346;2023-02-18T01:31:03;19.70;;;13.37;;
6679;SDS011;3376;42.664;23.346;2023-02-18T01:33:31;18.43;;;12.00;;
6679;SDS011;3376;42.664;23.346;2023-02-18T01:35:58;18.17;;;12.57;;
6679;SDS011;3376;42.664;23.346;2023-02-18T01:38:25;20.20;;;12.63;;
6679;SDS011;3376;42.664;23.346;2023-02-18T01:40:52;20.23;;;13.40;;
6679;SDS011;3376;42.664;23.346;2023-02-18T01:43:19;16.47;;;11.07;;
6679;SDS011;3376;42.664;23.346;2023-02-18T01:45:54;19.83;;;12.53;;
6679;SDS011;3376;42.664;23.346;2023-02-18T01:48:25;21.63;;;13.53;;
6679;SDS011;3376;42.664;23.346;2023-02-18T01:50:56;20.77;;;13.20;;
6679;SDS011;3376;42.664;23.346;2023-02-18T01:53:27;17.67;;;12.10;;
6679;SDS011;3376;42.664;23.346;2023-02-18T01:55:59;16.60;;;12.43;;
6679;SDS011;3376;42.664;23.346;2023-02-18T01:58:28;14.87;;;12.93;;
6679;SDS011;3376;42.664;23.346;2023-02-18T02:00:57;20.00;;;14.30;;
6679;SDS011;3376;42.664;23.346;2023-02-18T02:03:24;19.17;;;13.27;;
6679;SDS011;3376;42.664;23.346;2023-02-18T02:05:51;19.43;;;13.20;;
6679;SDS011;3376;42.664;23.346;2023-02-18T02:08:17;19.43;;;13.93;;
6679;SDS011;3376;42.664;23.346;2023-02-18T02:10:58;18.50;;;13.73;;
6679;SDS011;3376;42.664;23.346;2023-02-18T02:13:37;21.83;;;13.83;;
6679;SDS011;3376;42.664;23.346;2023-02-18T02:16:20;16.43;;;12.67;;
6679;SDS011;3376;42.664;23.346;2023-02-18T02:18:56;17.03;;;13.63;;
6679;SDS011;3376;42.664;23.346;2023-02-18T02:24:49;15.07;;;13.33;;
6679;SDS011;3376;42.664;23.346;2023-02-18T02:27:28;19.67;;;14.10;;
6679;SDS011;3376;42.664;23.346;2023-02-18T02:30:21;18.23;;;12.73;;
6679;SDS011;3376;42.664;23.346;2023-02-18T02:36:13;23.07;;;14.03;;
6679;SDS011;3376;42.664;23.346;2023-02-18T02:38:47;20.93;;;13.50;;
6679;SDS011;3376;42.664;23.346;2023-02-18T02:41:25;26.10;;;12.83;;
6679;SDS011;3376;42.664;23.346;2023-02-18T02:44:01;16.87;;;13.13;;
6679;SDS011;3376;42.664;23.346;2023-02-18T02:46:37;17.07;;;12.97;;
6679;SDS011;3376;42.664;23.346;2023-02-18T02:49:10;18.00;;;12.60;;
6679;SDS011;3376;42.664;23.346;2023-02-18T02:51:46;18.37;;;12.30;;
6679;SDS011;3376;42.664;23.346;2023-02-18T02:54:20;20.17;;;14.97;;
6679;SDS011;3376;42.664;23.346;2023-02-18T02:56:48;22.10;;;13.77;;
6679;SDS011;3376;42.664;23.346;2023-02-18T02:59:16;19.80;;;13.70;;
6679;SDS011;3376;42.664;23.346;2023-02-18T03:01:50;17.70;;;12.40;;
6679;SDS011;3376;42.664;23.346;2023-02-18T03:04:47;15.67;;;13.47;;
6679;SDS011;3376;42.664;23.346;2023-02-18T03:07:31;18.97;;;14.20;;
6679;SDS011;3376;42.664;23.346;2023-02-18T03:10:16;17.83;;;13.23;;
6679;SDS011;3376;42.664;23.346;2023-02-18T03:12:55;20.73;;;12.67;;
6679;SDS011;3376;42.664;23.346;2023-02-18T03:15:31;21.37;;;12.47;;
6679;SDS011;3376;42.664;23.346;2023-02-18T03:18:06;20.77;;;13.47;;
6679;SDS011;3376;42.664;23.346;2023-02-18T03:20:41;21.87;;;13.90;;
6679;SDS011;3376;42.664;23.346;2023-02-18T03:23:16;15.33;;;12.60;;
6679;SDS011;3376;42.664;23.346;2023-02-18T03:25:48;18.53;;;12.13;;
6679;SDS011;3376;42.664;23.346;2023-02-18T03:28:17;16.10;;;12.77;;
6679;SDS011;3376;42.664;23.346;2023-02-18T03:30:47;17.67;;;13.03;;
6679;SDS011;3376;42.664;23.346;2023-02-18T03:33:16;17.63;;;12.00;;
6679;SDS011;3376;42.664;23.346;2023-02-18T03:35:50;17.57;;;12.23;;
6679;SDS011;3376;42.664;23.346;2023-02-18T03:38:20;13.53;;;11.60;;
6679;SDS011;3376;42.664;23.346;2023-02-18T03:40:52;18.37;;;12.63;;
6679;SDS011;3376;42.664;23.346;2023-02-18T03:43:19;16.37;;;11.13;;
6679;SDS011;3376;42.664;23.346;2023-02-18T03:45:46;13.33;;;11.93;;
6679;SDS011;3376;42.664;23.346;2023-02-18T03:48:13;23.17;;;12.97;;
6679;SDS011;3376;42.664;23.346;2023-02-18T03:50:39;16.50;;;12.03;;
6679;SDS011;3376;42.664;23.346;2023-02-18T03:53:06;14.20;;;12.10;;
6679;SDS011;3376;42.664;23.346;2023-02-18T03:55:35;13.67;;;12.23;;
6679;SDS011;3376;42.664;23.346;2023-02-18T03:58:02;16.97;;;12.90;;
6679;SDS011;3376;42.664;23.346;2023-02-18T04:00:29;15.20;;;12.93;;
6679;SDS011;3376;42.664;23.346;2023-02-18T04:02:56;19.03;;;12.50;;
6679;SDS011;3376;42.664;23.346;2023-02-18T04:05:23;18.30;;;12.97;;
6679;SDS011;3376;42.664;23.346;2023-02-18T04:07:51;22.80;;;13.67;;
6679;SDS011;3376;42.664;23.346;2023-02-18T04:10:17;14.67;;;13.03;;
6679;SDS011;3376;42.664;23.346;2023-02-18T04:12:46;15.30;;;12.00;;
6679;SDS011;3376;42.664;23.346;2023-02-18T04:15:13;17.17;;;12.23;;
6679;SDS011;3376;42.664;23.346;2023-02-18T04:17:39;14.27;;;12.40;;
6679;SDS011;3376;42.664;23.346;2023-02-18T04:20:07;24.63;;;13.27;;
6679;SDS011;3376;42.664;23.346;2023-02-18T04:22:34;15.80;;;12.73;;
6679;SDS011;3376;42.664;23.346;2023-02-18T04:25:01;16.63;;;12.53;;
6679;SDS011;3376;42.664;23.346;2023-02-18T04:27:28;16.43;;;12.97;;
6679;SDS011;3376;42.664;23.346;2023-02-18T04:29:56;16.50;;;11.80;;
6679;SDS011;3376;42.664;23.346;2023-02-18T04:32:23;13.80;;;12.10;;
6679;SDS011;3376;42.664;23.346;2023-02-18T04:34:50;19.07;;;13.40;;
6679;SDS011;3376;42.664;23.346;2023-02-18T04:37:17;16.93;;;12.30;;
6679;SDS011;3376;42.664;23.346;2023-02-18T04:39:44;15.70;;;10.90;;
6679;SDS011;3376;42.664;23.346;2023-02-18T04:42:11;13.87;;;12.43;;
6679;SDS011;3376;42.664;23.346;2023-02-18T04:44:38;17.20;;;12.10;;
6679;SDS011;3376;42.664;23.346;2023-02-18T04:47:06;13.00;;;11.10;;
6679;SDS011;3376;42.664;23.346;2023-02-18T04:49:34;14.27;;;11.83;;
6679;SDS011;3376;42.664;23.346;2023-02-18T04:52:01;14.50;;;10.97;;
6679;SDS011;3376;42.664;23.346;2023-02-18T04:54:28;17.03;;;12.60;;
6679;SDS011;3376;42.664;23.346;2023-02-18T04:56:55;17.57;;;11.90;;
6679;SDS011;3376;42.664;23.346;2023-02-18T04:59:22;15.33;;;12.03;;
6679;SDS011;3376;42.664;23.346;2023-02-18T05:01:49;14.27;;;11.90;;
6679;SDS011;3376;42.664;23.346;2023-02-18T05:04:17;21.77;;;13.33;;
6679;SDS011;3376;42.664;23.346;2023-02-18T05:06:44;19.80;;;13.03;;
6679;SDS011;3376;42.664;23.346;2023-02-18T05:09:11;18.30;;;13.50;;
6679;SDS011;3376;42.664;23.346;2023-02-18T05:11:38;21.37;;;13.80;;
6679;SDS011;3376;42.664;23.346;2023-02-18T05:14:05;18.33;;;12.57;;
6679;SDS011;3376;42.664;23.346;2023-02-18T05:16:32;20.57;;;13.03;;
6679;SDS011;3376;42.664;23.346;2023-02-18T05:18:58;17.10;;;12.37;;
6679;SDS011;3376;42.664;23.346;2023-02-18T05:21:27;17.07;;;12.67;;
6679;SDS011;3376;42.664;23.346;2023-02-18T05:23:54;18.47;;;13.70;;
6679;SDS011;3376;42.664;23.346;2023-02-18T05:26:20;16.00;;;12.80;;
6679;SDS011;3376;42.664;23.346;2023-02-18T05:28:47;21.92;;;14.27;;
6679;SDS011;3376;42.664;23.346;2023-02-18T05:31:15;26.07;;;16.03;;
6679;SDS011;3376;42.664;23.346;2023-02-18T05:33:42;25.52;;;14.65;;
6679;SDS011;3376;42.664;23.346;2023-02-18T05:36:09;21.77;;;13.93;;
6679;SDS011;3376;42.664;23.346;2023-02-18T05:38:37;17.57;;;13.83;;
6679;SDS011;3376;42.664;23.346;2023-02-18T05:41:04;20.30;;;13.43;;
6679;SDS011;3376;42.664;23.346;2023-02-18T05:43:30;15.10;;;12.63;;
6679;SDS011;3376;42.664;23.346;2023-02-18T05:46:18;19.47;;;12.33;;
6679;SDS011;3376;42.664;23.346;2023-02-18T05:48:45;13.97;;;12.07;;
6679;SDS011;3376;42.664;23.346;2023-02-18T05:51:12;18.73;;;12.90;;
6679;SDS011;3376;42.664;23.346;2023-02-18T05:53:40;19.10;;;13.00;;
6679;SDS011;3376;42.664;23.346;2023-02-18T05:56:08;14.80;;;11.83;;
6679;SDS011;3376;42.664;23.346;2023-02-18T05:58:34;13.87;;;11.80;;
6679;SDS011;3376;42.664;23.346;2023-02-18T06:01:01;20.03;;;13.20;;
6679;SDS011;3376;42.664;23.346;2023-02-18T06:03:29;18.03;;;12.30;;
6679;SDS011;3376;42.664;23.346;2023-02-18T06:05:55;20.40;;;12.43;;
6679;SDS011;3376;42.664;23.346;2023-02-18T06:08:22;15.50;;;11.00;;
6679;SDS011;3376;42.664;23.346;2023-02-18T06:10:51;16.07;;;12.47;;
6679;SDS011;3376;42.664;23.346;2023-02-18T06:13:18;15.53;;;11.97;;
6679;SDS011;3376;42.664;23.346;2023-02-18T06:15:44;13.13;;;11.07;;
6679;SDS011;3376;42.664;23.346;2023-02-18T06:18:11;15.33;;;12.43;;
6679;SDS011;3376;42.664;23.346;2023-02-18T06:20:38;16.00;;;10.90;;
6679;SDS011;3376;42.664;23.346;2023-02-18T06:23:05;12.60;;;11.23;;
6679;SDS011;3376;42.664;23.346;2023-02-18T06:25:32;17.60;;;12.97;;
6679;SDS011;3376;42.664;23.346;2023-02-18T06:28:01;16.23;;;11.87;;
6679;SDS011;3376;42.664;23.346;2023-02-18T06:30:28;15.43;;;11.83;;
6679;SDS011;3376;42.664;23.346;2023-02-18T06:32:55;16.67;;;13.10;;
6679;SDS011;3376;42.664;23.346;2023-02-18T06:35:22;16.27;;;12.83;;
6679;SDS011;3376;42.664;23.346;2023-02-18T06:37:48;13.87;;;12.47;;
6679;SDS011;3376;42.664;23.346;2023-02-18T06:40:15;20.20;;;13.20;;
6679;SDS011;3376;42.664;23.346;2023-02-18T06:42:43;15.33;;;11.73;;
6679;SDS011;3376;42.664;23.346;2023-02-18T06:45:11;18.00;;;12.73;;
6679;SDS011;3376;42.664;23.346;2023-02-18T06:47:38;25.73;;;17.17;;
6679;SDS011;3376;42.664;23.346;2023-02-18T06:50:06;23.03;;;14.83;;
6679;SDS011;3376;42.664;23.346;2023-02-18T06:52:33;19.03;;;12.93;;
6679;SDS011;3376;42.664;23.346;2023-02-18T06:55:02;12.83;;;11.50;;
6679;SDS011;3376;42.664;23.346;2023-02-18T06:57:29;22.00;;;11.50;;
6679;SDS011;3376;42.664;23.346;2023-02-18T06:59:57;13.87;;;11.13;;
6679;SDS011;3376;42.664;23.346;2023-02-18T07:02:25;15.43;;;12.93;;
6679;SDS011;3376;42.664;23.346;2023-02-18T07:04:52;15.60;;;11.80;;
6679;SDS011;3376;42.664;23.346;2023-02-18T07:07:19;20.00;;;13.23;;
6679;SDS011;3376;42.664;23.346;2023-02-18T07:09:46;19.03;;;14.23;;
6679;SDS011;3376;42.664;23.346;2023-02-18T07:12:13;27.03;;;12.47;;
6679;SDS011;3376;42.664;23.346;2023-02-18T07:14:40;17.40;;;12.60;;
6679;SDS011;3376;42.664;23.346;2023-02-18T07:17:06;20.57;;;11.60;;
6679;SDS011;3376;42.664;23.346;2023-02-18T07:19:35;13.37;;;10.90;;
6679;SDS011;3376;42.664;23.346;2023-02-18T07:22:02;17.37;;;13.13;;
6679;SDS011;3376;42.664;23.346;2023-02-18T07:24:29;16.23;;;13.50;;
6679;SDS011;3376;42.664;23.346;2023-02-18T07:26:56;17.87;;;11.63;;
6679;SDS011;3376;42.664;23.346;2023-02-18T07:29:23;14.03;;;11.63;;
6679;SDS011;3376;42.664;23.346;2023-02-18T07:31:49;15.03;;;12.43;;
6679;SDS011;3376;42.664;23.346;2023-02-18T07:34:16;16.83;;;13.13;;
6679;SDS011;3376;42.664;23.346;2023-02-18T07:36:44;27.27;;;13.67;;
6679;SDS011;3376;42.664;23.346;2023-02-18T07:39:11;23.10;;;14.30;;
6679;SDS011;3376;42.664;23.346;2023-02-18T07:41:38;19.70;;;12.63;;
6679;SDS011;3376;42.664;23.346;2023-02-18T07:44:05;15.63;;;12.27;;
6679;SDS011;3376;42.664;23.346;2023-02-18T07:46:32;19.57;;;13.40;;
6679;SDS011;3376;42.664;23.346;2023-02-18T07:48:59;17.37;;;13.13;;
6679;SDS011;3376;42.664;23.346;2023-02-18T07:51:26;16.50;;;13.07;;
6679;SDS011;3376;42.664;23.346;2023-02-18T07:53:54;15.47;;;13.77;;
6679;SDS011;3376;42.664;23.346;2023-02-18T07:56:20;16.47;;;13.13;;
6679;SDS011;3376;42.664;23.346;2023-02-18T07:58:47;21.87;;;13.33;;
6679;SDS011;3376;42.664;23.346;2023-02-18T08:01:14;21.27;;;13.60;;
6679;SDS011;3376;42.664;23.346;2023-02-18T08:03:41;19.20;;;13.90;;
6679;SDS011;3376;42.664;23.346;2023-02-18T08:06:12;20.97;;;13.23;;
6679;SDS011;3376;42.664;23.346;2023-02-18T08:08:46;19.63;;;13.90;;
6679;SDS011;3376;42.664;23.346;2023-02-18T08:11:14;23.27;;;13.47;;
6679;SDS011;3376;42.664;23.346;2023-02-18T08:13:41;15.20;;;12.70;;
6679;SDS011;3376;42.664;23.346;2023-02-18T08:16:08;26.07;;;13.63;;
6679;SDS011;3376;42.664;23.346;2023-02-18T08:18:35;18.17;;;12.07;;
6679;SDS011;3376;42.664;23.346;2023-02-18T08:21:02;15.60;;;12.13;;
6679;SDS011;3376;42.664;23.346;2023-02-18T08:23:29;19.30;;;12.93;;
6679;SDS011;3376;42.664;23.346;2023-02-18T08:25:56;25.37;;;14.43;;
6679;SDS011;3376;42.664;23.346;2023-02-18T08:28:42;19.60;;;13.53;;
6679;SDS011;3376;42.664;23.346;2023-02-18T08:31:14;17.40;;;13.80;;
6679;SDS011;3376;42.664;23.346;2023-02-18T08:33:42;22.40;;;13.60;;
6679;SDS011;3376;42.664;23.346;2023-02-18T08:36:09;19.60;;;12.77;;
6679;SDS011;3376;42.664;23.346;2023-02-18T08:38:35;19.50;;;13.07;;
6679;SDS011;3376;42.664;23.346;2023-02-18T08:41:03;16.27;;;13.37;;
6679;SDS011;3376;42.664;23.346;2023-02-18T08:43:31;15.23;;;12.93;;
6679;SDS011;3376;42.664;23.346;2023-02-18T08:45:59;19.13;;;12.17;;
6679;SDS011;3376;42.664;23.346;2023-02-18T08:48:26;22.13;;;13.93;;
6679;SDS011;3376;42.664;23.346;2023-02-18T08:50:54;32.13;;;16.40;;
6679;SDS011;3376;42.664;23.346;2023-02-18T08:53:21;26.80;;;17.07;;
6679;SDS011;3376;42.664;23.346;2023-02-18T08:55:48;39.10;;;19.97;;
6679;SDS011;3376;42.664;23.346;2023-02-18T08:58:14;26.23;;;14.70;;
6679;SDS011;3376;42.664;23.346;2023-02-18T09:00:42;36.93;;;20.83;;
6679;SDS011;3376;42.664;23.346;2023-02-18T09:03:12;20.27;;;14.40;;
6679;SDS011;3376;42.664;23.346;2023-02-18T09:05:39;28.20;;;16.70;;
6679;SDS011;3376;42.664;23.346;2023-02-18T09:08:06;16.40;;;12.93;;
6679;SDS011;3376;42.664;23.346;2023-02-18T09:10:33;23.80;;;15.30;;
6679;SDS011;3376;42.664;23.346;2023-02-18T09:13:00;28.63;;;17.13;;
6679;SDS011;3376;42.664;23.346;2023-02-18T09:15:27;22.87;;;16.20;;
6679;SDS011;3376;42.664;23.346;2023-02-18T09:17:53;23.10;;;14.93;;
6679;SDS011;3376;42.664;23.346;2023-02-18T09:20:22;29.07;;;17.30;;
6679;SDS011;3376;42.664;23.346;2023-02-18T09:22:48;22.67;;;14.97;;
6679;SDS011;3376;42.664;23.346;2023-02-18T09:25:15;23.63;;;14.67;;
6679;SDS011;3376;42.664;23.346;2023-02-18T09:27:42;25.30;;;15.50;;
6679;SDS011;3376;42.664;23.346;2023-02-18T09:30:09;18.47;;;13.00;;
6679;SDS011;3376;42.664;23.346;2023-02-18T09:32:36;20.63;;;13.43;;
6679;SDS011;3376;42.664;23.346;2023-02-18T09:35:03;22.03;;;14.10;;
6679;SDS011;3376;42.664;23.346;2023-02-18T09:37:32;15.93;;;13.60;;
6679;SDS011;3376;42.664;23.346;2023-02-18T09:39:58;17.37;;;12.73;;
6679;SDS011;3376;42.664;23.346;2023-02-18T09:42:27;19.10;;;13.83;;
6679;SDS011;3376;42.664;23.346;2023-02-18T09:44:58;18.13;;;13.70;;
6679;SDS011;3376;42.664;23.346;2023-02-18T09:47:30;24.37;;;14.40;;
6679;SDS011;3376;42.664;23.346;2023-02-18T09:50:03;21.47;;;14.70;;
6679;SDS011;3376;42.664;23.346;2023-02-18T09:52:35;27.07;;;13.77;;
6679;SDS011;3376;42.664;23.346;2023-02-18T09:55:14;18.40;;;13.40;;
6679;SDS011;3376;42.664;23.346;2023-02-18T09:57:44;26.40;;;12.90;;
6679;SDS011;3376;42.664;23.346;2023-02-18T10:00:14;22.67;;;14.33;;
6679;SDS011;3376;42.664;23.346;2023-02-18T10:02:47;28.40;;;15.27;;
6679;SDS011;3376;42.664;23.346;2023-02-18T10:05:20;15.80;;;14.13;;
6679;SDS011;3376;42.664;23.346;2023-02-18T10:07:50;19.57;;;13.70;;
6679;SDS011;3376;42.664;23.346;2023-02-18T10:10:20;17.23;;;13.40;;
6679;SDS011;3376;42.664;23.346;2023-02-18T10:12:54;31.10;;;15.90;;
6679;SDS011;3376;42.664;23.346;2023-02-18T10:15:22;20.07;;;15.17;;
6679;SDS011;3376;42.664;23.346;2023-02-18T10:17:54;23.07;;;16.13;;
6679;SDS011;3376;42.664;23.346;2023-02-18T10:20:23;21.53;;;14.40;;
6679;SDS011;3376;42.664;23.346;2023-02-18T10:22:53;20.43;;;13.53;;
6679;SDS011;3376;42.664;23.346;2023-02-18T10:25:25;20.53;;;13.47;;
6679;SDS011;3376;42.664;23.346;2023-02-18T10:27:53;15.07;;;12.53;;
6679;SDS011;3376;42.664;23.346;2023-02-18T10:30:21;16.77;;;12.17;;
6679;SDS011;3376;42.664;23.346;2023-02-18T10:32:51;16.57;;;13.40;;
6679;SDS011;3376;42.664;23.346;2023-02-18T10:35:22;17.37;;;15.60;;
6679;SDS011;3376;42.664;23.346;2023-02-18T10:37:58;14.73;;;13.13;;
6679;SDS011;3376;42.664;23.346;2023-02-18T10:40:34;14.33;;;12.23;;
6679;SDS011;3376;42.664;23.346;2023-02-18T10:43:15;13.60;;;12.30;;
6679;SDS011;3376;42.664;23.346;2023-02-18T10:45:51;19.87;;;12.60;;
6679;SDS011;3376;42.664;23.346;2023-02-18T10:48:28;14.27;;;12.87;;
6679;SDS011;3376;42.664;23.346;2023-02-18T10:51:11;17.20;;;13.67;;
6679;SDS011;3376;42.664;23.346;2023-02-18T10:53:43;21.87;;;13.97;;
6679;SDS011;3376;42.664;23.346;2023-02-18T10:56:28;13.43;;;12.23;;
6679;SDS011;3376;42.664;23.346;2023-02-18T10:58:59;16.63;;;12.50;;
6679;SDS011;3376;42.664;23.346;2023-02-18T11:01:30;22.23;;;11.30;;
6679;SDS011;3376;42.664;23.346;2023-02-18T11:04:04;12.57;;;11.37;;
6679;SDS011;3376;42.664;23.346;2023-02-18T11:06:37;16.20;;;11.83;;
6679;SDS011;3376;42.664;23.346;2023-02-18T11:09:06;15.23;;;11.30;;
6679;SDS011;3376;42.664;23.346;2023-02-18T11:11:56;11.30;;;10.37;;
6679;SDS011;3376;42.664;23.346;2023-02-18T11:14:34;18.97;;;16.63;;
6679;SDS011;3376;42.664;23.346;2023-02-18T11:17:06;12.23;;;10.10;;
6679;SDS011;3376;42.664;23.346;2023-02-18T11:19:40;11.00;;;9.90;;
6679;SDS011;3376;42.664;23.346;2023-02-18T11:22:07;15.10;;;11.23;;
6679;SDS011;3376;42.664;23.346;2023-02-18T11:24:42;11.97;;;10.90;;
6679;SDS011;3376;42.664;23.346;2023-02-18T11:27:15;14.77;;;11.43;;
6679;SDS011;3376;42.664;23.346;2023-02-18T11:29:48;17.90;;;10.47;;
6679;SDS011;3376;42.664;23.346;2023-02-18T11:32:17;12.80;;;9.93;;
6679;SDS011;3376;42.664;23.346;2023-02-18T11:34:44;12.73;;;9.70;;
6679;SDS011;3376;42.664;23.346;2023-02-18T11:37:19;8.93;;;7.87;;
6679;SDS011;3376;42.664;23.346;2023-02-18T11:39:49;8.77;;;7.97;;
6679;SDS011;3376;42.664;23.346;2023-02-18T11:42:20;7.63;;;7.03;;
6679;SDS011;3376;42.664;23.346;2023-02-18T11:44:51;6.20;;;5.70;;
6679;SDS011;3376;42.664;23.346;2023-02-18T11:47:21;7.13;;;4.60;;
6679;SDS011;3376;42.664;23.346;2023-02-18T11:49:58;5.53;;;4.13;;
6679;SDS011;3376;42.664;23.346;2023-02-18T11:52:29;4.53;;;4.10;;
6679;SDS011;3376;42.664;23.346;2023-02-18T11:55:01;5.03;;;4.57;;
6679;SDS011;3376;42.664;23.346;2023-02-18T11:57:30;6.83;;;4.50;;
6679;SDS011;3376;42.664;23.346;2023-02-18T11:59:59;4.60;;;4.30;;
6679;SDS011;3376;42.664;23.346;2023-02-18T12:02:29;7.30;;;4.60;;
6679;SDS011;3376;42.664;23.346;2023-02-18T12:05:00;9.53;;;5.10;;
6679;SDS011;3376;42.664;23.346;2023-02-18T12:07:30;6.17;;;4.17;;
6679;SDS011;3376;42.664;23.346;2023-02-18T12:10:11;3.40;;;3.10;;
6679;SDS011;3376;42.664;23.346;2023-02-18T12:12:43;4.30;;;3.90;;
6679;SDS011;3376;42.664;23.346;2023-02-18T12:15:13;3.40;;;3.20;;
6679;SDS011;3376;42.664;23.346;2023-02-18T12:17:49;3.30;;;3.10;;
6679;SDS011;3376;42.664;23.346;2023-02-18T12:20:35;3.67;;;3.40;;
6679;SDS011;3376;42.664;23.346;2023-02-18T12:23:16;5.73;;;4.70;;
6679;SDS011;3376;42.664;23.346;2023-02-18T12:25:50;6.60;;;5.47;;
6679;SDS011;3376;42.664;23.346;2023-02-18T12:28:28;6.17;;;5.67;;
6679;SDS011;3376;42.664;23.346;2023-02-18T12:31:19;6.40;;;5.83;;
6679;SDS011;3376;42.664;23.346;2023-02-18T12:33:58;5.33;;;4.93;;
6679;SDS011;3376;42.664;23.346;2023-02-18T12:36:39;5.50;;;4.93;;
6679;SDS011;3376;42.664;23.346;2023-02-18T12:39:19;5.90;;;5.40;;
6679;SDS011;3376;42.664;23.346;2023-02-18T12:42:04;5.30;;;5.00;;
6679;SDS011;3376;42.664;23.346;2023-02-18T12:45:00;5.70;;;5.40;;
6679;SDS011;3376;42.664;23.346;2023-02-18T12:47:57;5.80;;;5.40;;
6679;SDS011;3376;42.664;23.346;2023-02-18T12:53:38;15.40;;;5.73;;
6679;SDS011;3376;42.664;23.346;2023-02-18T12:59:41;5.40;;;4.00;;
6679;SDS011;3376;42.664;23.346;2023-02-18T13:02:32;6.70;;;4.50;;
6679;SDS011;3376;42.664;23.346;2023-02-18T13:05:14;4.37;;;3.97;;
6679;SDS011;3376;42.664;23.346;2023-02-18T13:07:55;6.40;;;3.40;;
6679;SDS011;3376;42.664;23.346;2023-02-18T13:13:28;5.43;;;4.87;;
6679;SDS011;3376;42.664;23.346;2023-02-18T13:16:00;3.30;;;3.10;;
6679;SDS011;3376;42.664;23.346;2023-02-18T13:18:30;5.63;;;4.47;;
6679;SDS011;3376;42.664;23.346;2023-02-18T13:21:02;4.97;;;3.93;;
6679;SDS011;3376;42.664;23.346;2023-02-18T13:23:32;3.70;;;3.50;;
6679;SDS011;3376;42.664;23.346;2023-02-18T13:26:01;3.70;;;3.40;;
6679;SDS011;3376;42.664;23.346;2023-02-18T13:28:33;3.50;;;3.20;;
6679;SDS011;3376;42.664;23.346;2023-02-18T13:31:12;8.90;;;3.90;;
6679;SDS011;3376;42.664;23.346;2023-02-18T13:33:50;3.00;;;2.70;;
6679;SDS011;3376;42.664;23.346;2023-02-18T13:36:27;5.57;;;3.97;;
6679;SDS011;3376;42.664;23.346;2023-02-18T13:39:04;3.33;;;3.17;;
6679;SDS011;3376;42.664;23.346;2023-02-18T13:41:36;4.03;;;3.73;;
6679;SDS011;3376;42.664;23.346;2023-02-18T13:44:08;5.30;;;3.93;;
6679;SDS011;3376;42.664;23.346;2023-02-18T13:46:47;4.73;;;3.67;;
6679;SDS011;3376;42.664;23.346;2023-02-18T13:49:16;6.03;;;4.20;;
6679;SDS011;3376;42.664;23.346;2023-02-18T13:51:46;4.40;;;4.20;;
6679;SDS011;3376;42.664;23.346;2023-02-18T13:54:17;4.57;;;4.13;;
6679;SDS011;3376;42.664;23.346;2023-02-18T13:56:49;5.23;;;4.77;;
6679;SDS011;3376;42.664;23.346;2023-02-18T13:59:21;5.27;;;4.67;;
6679;SDS011;3376;42.664;23.346;2023-02-18T14:01:55;5.27;;;4.27;;
6679;SDS011;3376;42.664;23.346;2023-02-18T14:04:55;4.83;;;4.43;;
6679;SDS011;3376;42.664;23.346;2023-02-18T14:07:36;8.37;;;4.60;;
6679;SDS011;3376;42.664;23.346;2023-02-18T14:13:00;6.20;;;4.77;;
6679;SDS011;3376;42.664;23.346;2023-02-18T14:15:48;4.53;;;4.33;;
6679;SDS011;3376;42.664;23.346;2023-02-18T14:18:31;4.63;;;4.27;;
6679;SDS011;3376;42.664;23.346;2023-02-18T14:21:18;4.40;;;4.10;;
6679;SDS011;3376;42.664;23.346;2023-02-18T14:24:00;4.73;;;4.33;;
6679;SDS011;3376;42.664;23.346;2023-02-18T14:26:29;9.10;;;4.73;;
6679;SDS011;3376;42.664;23.346;2023-02-18T14:29:00;6.07;;;4.23;;
6679;SDS011;3376;42.664;23.346;2023-02-18T14:31:38;6.87;;;5.10;;
6679;SDS011;3376;42.664;23.346;2023-02-18T14:34:14;5.03;;;4.63;;
6679;SDS011;3376;42.664;23.346;2023-02-18T14:36:58;10.03;;;4.63;;
6679;SDS011;3376;42.664;23.346;2023-02-18T14:39:42;6.63;;;4.70;;
6679;SDS011;3376;42.664;23.346;2023-02-18T14:42:21;5.43;;;4.73;;
6679;SDS011;3376;42.664;23.346;2023-02-18T14:45:03;4.67;;;4.37;;
6679;SDS011;3376;42.664;23.346;2023-02-18T14:47:41;4.53;;;4.20;;
6679;SDS011;3376;42.664;23.346;2023-02-18T14:50:19;4.93;;;4.63;;
6679;SDS011;3376;42.664;23.346;2023-02-18T14:52:49;4.53;;;4.23;;
6679;SDS011;3376;42.664;23.346;2023-02-18T14:55:19;4.97;;;4.13;;
6679;SDS011;3376;42.664;23.346;2023-02-18T14:57:50;5.03;;;4.57;;
6679;SDS011;3376;42.664;23.346;2023-02-18T15:00:20;5.83;;;5.07;;
6679;SDS011;3376;42.664;23.346;2023-02-18T15:02:48;5.53;;;5.03;;
6679;SDS011;3376;42.664;23.346;2023-02-18T15:05:18;5.63;;;4.53;;
6679;SDS011;3376;42.664;23.346;2023-02-18T15:07:55;5.87;;;5.40;;
6679;SDS011;3376;42.664;23.346;2023-02-18T15:10:24;5.80;;;4.87;;
6679;SDS011;3376;42.664;23.346;2023-02-18T15:12:57;5.30;;;4.80;;
6679;SDS011;3376;42.664;23.346;2023-02-18T15:15:26;5.20;;;4.80;;
6679;SDS011;3376;42.664;23.346;2023-02-18T15:17:53;4.63;;;4.27;;
6679;SDS011;3376;42.664;23.346;2023-02-18T15:20:20;4.97;;;4.57;;